»·PEaware :: N175CA KFHR-KOLM

N175CA :: KFHR-KOLM

FLIGHT INFORMATION

Flight Status: Arrived
Operator: Privately registered:
United States
More flights under this callsign
Pilot: Anonymous 15639 (15639)
Aircraft: ROBIN DR-400
(DR40)
More flights by this aircraft type
Origin: KFHR Friday Harbor
United States
Destination: KOLM Olympia
United States
More flights between these airports :: More routes between these airports
Route: CVV V165 OLM
File this flight plan on PilotEdge
Remarks:
Altitude:
(Current/Filed)
6,000ft
Speed:
(Current/Filed)
120kts
Departed: 03-Oct-18 10:07 AM
Arrived: 03-Oct-18 10:58 AM
Distance/Time
Traveled:
93nm/0:51
Distance/Time
To Go:
Arrived

Flight Plot

Page will automatically refresh every two minutes.

Flight plan parsing failed; only flown route is shown


Map Options




Map Legend


Flown Route
Filed Route
Departure Airport
Arrival Airport
Navaid (VOR, NDB)
Fix

Horizontal Profiles

Position Reports

Time Latitude Longitude Heading Altitude Ground
Speed
03-Oct-18 09:59 48.526607 -123.026428 355 115ft 0kts
03-Oct-18 10:00 48.526607 -123.026428 355 115ft 0kts
03-Oct-18 10:01 48.526607 -123.026428 355 115ft 0kts
03-Oct-18 10:02 48.526607 -123.026428 355 115ft 0kts
03-Oct-18 10:03 48.526607 -123.026428 355 115ft 0kts
03-Oct-18 10:04 48.526607 -123.026428 355 115ft 0kts
03-Oct-18 10:05 48.526607 -123.026428 355 115ft 0kts
03-Oct-18 10:06 48.526645 -123.026402 49 115ft 1kts
03-Oct-18 10:07 48.526552 -123.025352 86 115ft 0kts
03-Oct-18 10:08 48.526390 -123.024690 177 115ft 6kts
03-Oct-18 10:09 48.507396 -123.024395 182 668ft 84kts
03-Oct-18 10:10 48.484339 -123.024129 180 1655ft 84kts
03-Oct-18 10:11 48.461103 -123.021807 173 2607ft 86kts
03-Oct-18 10:12 48.439851 -123.005802 125 3523ft 90kts
03-Oct-18 10:13 48.422734 -122.977540 135 4437ft 93kts
03-Oct-18 10:14 48.403357 -122.949910 135 5251ft 100kts
03-Oct-18 10:15 48.382964 -122.920896 136 5972ft 106kts
03-Oct-18 10:16 48.358421 -122.886065 136 6000ft 123kts
03-Oct-18 10:17 48.333782 -122.851050 135 6006ft 121kts
03-Oct-18 10:18 48.309209 -122.816086 135 6009ft 121kts
03-Oct-18 10:19 48.284590 -122.781073 135 6010ft 123kts
03-Oct-18 10:20 48.259278 -122.745258 135 6009ft 125kts
03-Oct-18 10:21 48.231149 -122.718664 188 6013ft 125kts
03-Oct-18 10:22 48.196541 -122.727126 189 6009ft 126kts
03-Oct-18 10:23 48.161762 -122.733912 187 6009ft 126kts
03-Oct-18 10:24 48.126861 -122.739519 186 6009ft 126kts
03-Oct-18 10:25 48.091963 -122.744590 186 6047ft 123kts
03-Oct-18 10:26 48.057421 -122.749405 186 6065ft 126kts
03-Oct-18 10:27 48.022394 -122.754194 186 6064ft 126kts
03-Oct-18 10:28 47.987397 -122.758924 186 6062ft 126kts
03-Oct-18 10:29 47.952151 -122.763653 186 6052ft 127kts
03-Oct-18 10:30 47.916773 -122.768548 186 6042ft 128kts
03-Oct-18 10:31 47.881157 -122.773242 186 6030ft 128kts
03-Oct-18 10:32 47.845494 -122.778008 187 6020ft 129kts
03-Oct-18 10:33 47.809728 -122.782772 187 6017ft 129kts
03-Oct-18 10:34 47.774003 -122.787545 187 6017ft 129kts
03-Oct-18 10:35 47.738262 -122.792314 187 6017ft 129kts
03-Oct-18 10:36 47.702457 -122.796962 187 6017ft 129kts
03-Oct-18 10:37 47.666718 -122.801731 187 6017ft 129kts
03-Oct-18 10:38 47.631001 -122.807429 189 6018ft 129kts
03-Oct-18 10:39 47.595405 -122.813775 189 6018ft 129kts
03-Oct-18 10:40 47.559853 -122.820102 189 6018ft 129kts
03-Oct-18 10:41 47.524232 -122.826545 189 6018ft 129kts
03-Oct-18 10:42 47.488540 -122.832206 188 6018ft 129kts
03-Oct-18 10:43 47.452814 -122.837399 187 6017ft 129kts
03-Oct-18 10:44 47.417046 -122.842380 187 6017ft 129kts
03-Oct-18 10:45 47.381349 -122.847249 187 6017ft 129kts
03-Oct-18 10:46 47.345565 -122.852084 187 6017ft 129kts
03-Oct-18 10:47 47.311414 -122.857046 187 5642ft 117kts
03-Oct-18 10:48 47.280172 -122.853439 155 5124ft 116kts
03-Oct-18 10:49 47.250067 -122.835046 156 4532ft 118kts
03-Oct-18 10:50 47.218173 -122.831371 188 3945ft 121kts
03-Oct-18 10:51 47.185253 -122.841120 189 3343ft 121kts
03-Oct-18 10:52 47.152437 -122.850814 189 2777ft 119kts
03-Oct-18 10:53 47.120232 -122.860271 189 2402ft 116kts
03-Oct-18 10:54 47.089771 -122.869202 189 2399ft 108kts
03-Oct-18 10:55 47.059483 -122.878072 189 1895ft 111kts
03-Oct-18 10:56 47.030446 -122.886689 187 1308ft 93kts
03-Oct-18 10:57 47.009304 -122.892763 187 921ft 72kts
03-Oct-18 10:58 46.989141 -122.898685 189 517ft 75kts
03-Oct-18 10:59 46.971684 -122.903738 190 211ft 42kts
03-Oct-18 11:00 46.970488 -122.902958 102 211ft 12kts
03-Oct-18 11:01 46.971349 -122.898213 46 211ft 11kts
03-Oct-18 11:02 46.973006 -122.894924 79 211ft 7kts

Navigation Log

Ident Type
Flight plan parsing failed, navigation log unavailable